sensor_id;sensor_type;location;lat;lon;timestamp;pressure;altitude;pressure_sealevel;temperature;humidity
54042;BME280;41156;51.508;5.406;2022-10-16T00:02:43;100911.94;;;12.15;100.00
54042;BME280;41156;51.508;5.406;2022-10-16T00:05:44;100905.13;;;12.13;100.00
54042;BME280;41156;51.508;5.406;2022-10-16T00:08:44;100902.41;;;12.13;100.00
54042;BME280;41156;51.508;5.406;2022-10-16T00:11:45;100895.09;;;12.13;100.00
54042;BME280;41156;51.508;5.406;2022-10-16T00:14:45;100900.13;;;12.10;100.00
54042;BME280;41156;51.508;5.406;2022-10-16T00:17:45;100901.19;;;12.09;100.00
54042;BME280;41156;51.508;5.406;2022-10-16T00:20:46;100898.09;;;12.05;100.00
54042;BME280;41156;51.508;5.406;2022-10-16T00:23:46;100901.25;;;12.02;100.00
54042;BME280;41156;51.508;5.406;2022-10-16T00:26:49;100902.31;;;12.01;100.00
54042;BME280;41156;51.508;5.406;2022-10-16T00:29:51;100907.94;;;11.99;100.00
54042;BME280;41156;51.508;5.406;2022-10-16T00:32:51;100900.88;;;11.98;100.00
54042;BME280;41156;51.508;5.406;2022-10-16T00:35:51;100903.19;;;11.95;100.00
54042;BME280;41156;51.508;5.406;2022-10-16T00:38:53;100911.75;;;11.92;100.00
54042;BME280;41156;51.508;5.406;2022-10-16T00:41:54;100907.81;;;11.88;100.00
54042;BME280;41156;51.508;5.406;2022-10-16T00:44:56;100915.56;;;11.84;100.00
54042;BME280;41156;51.508;5.406;2022-10-16T00:47:57;100906.00;;;11.81;100.00
54042;BME280;41156;51.508;5.406;2022-10-16T00:50:58;100903.28;;;11.81;100.00
54042;BME280;41156;51.508;5.406;2022-10-16T00:53:59;100909.28;;;11.83;100.00
54042;BME280;41156;51.508;5.406;2022-10-16T00:57:02;100909.28;;;11.83;100.00
54042;BME280;41156;51.508;5.406;2022-10-16T01:00:08;100901.63;;;11.80;100.00
54042;BME280;41156;51.508;5.406;2022-10-16T01:03:31;100901.63;;;11.80;100.00
54042;BME280;41156;51.508;5.406;2022-10-16T01:13:29;100904.59;;;11.72;100.00
54042;BME280;41156;51.508;5.406;2022-10-16T01:16:58;100910.00;;;11.72;100.00
54042;BME280;41156;51.508;5.406;2022-10-16T01:20:08;100901.28;;;11.70;100.00
54042;BME280;41156;51.508;5.406;2022-10-16T01:23:19;100909.03;;;11.66;100.00
54042;BME280;41156;51.508;5.406;2022-10-16T01:26:35;100918.66;;;11.62;100.00
54042;BME280;41156;51.508;5.406;2022-10-16T01:30:17;100913.66;;;11.59;100.00
54042;BME280;41156;51.508;5.406;2022-10-16T01:33:19;100917.41;;;11.58;100.00
54042;BME280;41156;51.508;5.406;2022-10-16T01:36:24;100909.06;;;11.60;100.00
54042;BME280;41156;51.508;5.406;2022-10-16T01:39:31;100905.13;;;11.62;100.00
54042;BME280;41156;51.508;5.406;2022-10-16T01:42:37;100911.72;;;11.66;100.00
54042;BME280;41156;51.508;5.406;2022-10-16T01:45:41;100914.06;;;11.63;100.00
54042;BME280;41156;51.508;5.406;2022-10-16T01:48:41;100907.34;;;11.65;100.00
54042;BME280;41156;51.508;5.406;2022-10-16T01:51:44;100900.25;;;11.71;100.00
54042;BME280;41156;51.508;5.406;2022-10-16T01:54:49;100896.03;;;11.75;100.00
54042;BME280;41156;51.508;5.406;2022-10-16T01:57:51;100907.47;;;11.77;100.00
54042;BME280;41156;51.508;5.406;2022-10-16T02:00:54;100910.63;;;11.74;100.00
54042;BME280;41156;51.508;5.406;2022-10-16T02:03:57;100910.63;;;11.74;100.00
54042;BME280;41156;51.508;5.406;2022-10-16T02:06:59;100905.22;;;11.74;100.00
54042;BME280;41156;51.508;5.406;2022-10-16T02:10:00;100904.00;;;11.70;100.00
54042;BME280;41156;51.508;5.406;2022-10-16T02:16:45;100911.25;;;11.76;100.00
54042;BME280;41156;51.508;5.406;2022-10-16T02:19:48;100916.81;;;11.81;100.00
54042;BME280;41156;51.508;5.406;2022-10-16T02:22:49;100911.84;;;11.78;100.00
54042;BME280;41156;51.508;5.406;2022-10-16T02:25:52;100909.56;;;11.75;100.00
54042;BME280;41156;51.508;5.406;2022-10-16T02:28:59;100912.28;;;11.75;100.00
54042;BME280;41156;51.508;5.406;2022-10-16T02:32:04;100910.63;;;11.74;100.00
54042;BME280;41156;51.508;5.406;2022-10-16T02:35:07;100905.81;;;11.76;100.00
54042;BME280;41156;51.508;5.406;2022-10-16T02:38:08;100907.94;;;11.74;100.00
54042;BME280;41156;51.508;5.406;2022-10-16T02:41:09;100918.75;;;11.74;100.00
54042;BME280;41156;51.508;5.406;2022-10-16T02:44:10;100914.81;;;11.70;100.00
54042;BME280;41156;51.508;5.406;2022-10-16T02:47:10;100917.53;;;11.70;100.00
54042;BME280;41156;51.508;5.406;2022-10-16T02:50:13;100908.59;;;11.70;100.00
54042;BME280;41156;51.508;5.406;2022-10-16T02:53:13;100913.19;;;11.69;100.00
54042;BME280;41156;51.508;5.406;2022-10-16T02:56:13;100901.28;;;11.70;100.00
54042;BME280;41156;51.508;5.406;2022-10-16T02:59:14;100899.41;;;11.71;100.00
54042;BME280;41156;51.508;5.406;2022-10-16T03:02:14;100908.81;;;11.68;100.00
54042;BME280;41156;51.508;5.406;2022-10-16T03:05:15;100917.97;;;11.67;100.00
54042;BME280;41156;51.508;5.406;2022-10-16T03:08:15;100924.66;;;11.64;100.00
54042;BME280;41156;51.508;5.406;2022-10-16T03:11:16;100925.91;;;11.62;100.00
54042;BME280;41156;51.508;5.406;2022-10-16T03:14:16;100914.88;;;11.63;100.00
54042;BME280;41156;51.508;5.406;2022-10-16T03:17:16;100915.69;;;11.64;100.00
54042;BME280;41156;51.508;5.406;2022-10-16T03:20:17;100925.31;;;11.60;100.00
54042;BME280;41156;51.508;5.406;2022-10-16T03:23:17;100927.19;;;11.59;100.00
54042;BME280;41156;51.508;5.406;2022-10-16T03:26:17;100931.56;;;11.60;100.00
54042;BME280;41156;51.508;5.406;2022-10-16T03:29:18;100939.66;;;11.60;100.00
54042;BME280;41156;51.508;5.406;2022-10-16T03:32:18;100945.94;;;11.61;100.00
54042;BME280;41156;51.508;5.406;2022-10-16T03:35:21;100944.03;;;11.61;100.00
54042;BME280;41156;51.508;5.406;2022-10-16T03:38:21;100939.22;;;11.63;100.00
54042;BME280;41156;51.508;5.406;2022-10-16T03:41:22;100942.53;;;11.65;100.00
54042;BME280;41156;51.508;5.406;2022-10-16T03:44:22;100948.81;;;11.66;100.00
54042;BME280;41156;51.508;5.406;2022-10-16T03:47:22;100953.16;;;11.67;100.00
54042;BME280;41156;51.508;5.406;2022-10-16T03:50:23;100960.25;;;11.68;100.00
54042;BME280;41156;51.508;5.406;2022-10-16T03:53:24;100955.84;;;11.67;100.00
54042;BME280;41156;51.508;5.406;2022-10-16T03:56:24;100956.72;;;11.68;100.00
54042;BME280;41156;51.508;5.406;2022-10-16T03:59:24;100953.53;;;11.71;100.00
54042;BME280;41156;51.508;5.406;2022-10-16T04:02:25;100962.50;;;11.71;100.00
54042;BME280;41156;51.508;5.406;2022-10-16T04:05:25;100953.16;;;11.67;100.00
54042;BME280;41156;51.508;5.406;2022-10-16T04:08:25;100954.59;;;11.70;100.00
54042;BME280;41156;51.508;5.406;2022-10-16T04:11:26;100962.50;;;11.71;100.00
54042;BME280;41156;51.508;5.406;2022-10-16T04:14:26;100966.84;;;11.72;100.00
54042;BME280;41156;51.508;5.406;2022-10-16T04:17:26;100960.63;;;11.72;100.00
54042;BME280;41156;51.508;5.406;2022-10-16T04:20:26;100967.72;;;11.73;100.00
54042;BME280;41156;51.508;5.406;2022-10-16T04:23:27;100971.03;;;11.75;100.00
54042;BME280;41156;51.508;5.406;2022-10-16T04:26:28;100966.22;;;11.77;100.00
54042;BME280;41156;51.508;5.406;2022-10-16T04:29:28;100966.81;;;11.79;100.00
54042;BME280;41156;51.508;5.406;2022-10-16T04:32:28;100963.28;;;11.78;100.00
54042;BME280;41156;51.508;5.406;2022-10-16T04:35:29;100966.59;;;11.80;100.00
54042;BME280;41156;51.508;5.406;2022-10-16T04:38:29;100977.41;;;11.80;100.00
54042;BME280;41156;51.508;5.406;2022-10-16T04:41:30;100975.56;;;11.81;100.00
54042;BME280;41156;51.508;5.406;2022-10-16T04:44:30;100984.50;;;11.81;100.00
54042;BME280;41156;51.508;5.406;2022-10-16T04:47:30;100996.16;;;11.82;100.00
54042;BME280;41156;51.508;5.406;2022-10-16T04:50:30;100990.97;;;11.80;100.00
54042;BME280;41156;51.508;5.406;2022-10-16T04:53:31;100997.22;;;11.81;100.00
54042;BME280;41156;51.508;5.406;2022-10-16T04:56:31;101001.78;;;11.80;100.00
54042;BME280;41156;51.508;5.406;2022-10-16T04:59:31;101006.38;;;11.80;100.00
54042;BME280;41156;51.508;5.406;2022-10-16T05:02:32;101013.91;;;11.78;100.00
54042;BME280;41156;51.508;5.406;2022-10-16T05:05:32;101017.84;;;11.75;100.00
54042;BME280;41156;51.508;5.406;2022-10-16T05:08:32;101017.25;;;11.73;100.00
54042;BME280;41156;51.508;5.406;2022-10-16T05:11:33;101019.78;;;11.68;100.00
54042;BME280;41156;51.508;5.406;2022-10-16T05:14:33;101034.16;;;11.69;100.00
54042;BME280;41156;51.508;5.406;2022-10-16T05:17:34;101027.91;;;11.68;100.00
54042;BME280;41156;51.508;5.406;2022-10-16T05:20:34;101033.53;;;11.66;100.00
54042;BME280;41156;51.508;5.406;2022-10-16T05:23:34;101026.44;;;11.65;100.00
54042;BME280;41156;51.508;5.406;2022-10-16T05:26:35;101026.44;;;11.65;100.00
54042;BME280;41156;51.508;5.406;2022-10-16T05:29:35;101032.72;;;11.66;100.00
54042;BME280;41156;51.508;5.406;2022-10-16T05:32:35;101038.94;;;11.66;100.00
54042;BME280;41156;51.508;5.406;2022-10-16T05:35:35;101047.69;;;11.69;100.00
54042;BME280;41156;51.508;5.406;2022-10-16T05:38:36;101048.97;;;11.66;100.00
54042;BME280;41156;51.508;5.406;2022-10-16T05:41:36;101049.38;;;11.63;100.00
54042;BME280;41156;51.508;5.406;2022-10-16T05:44:37;101058.53;;;11.62;100.00
54042;BME280;41156;51.508;5.406;2022-10-16T05:47:37;101070.44;;;11.61;100.00
54042;BME280;41156;51.508;5.406;2022-10-16T05:50:38;101077.09;;;11.58;100.00
54042;BME280;41156;51.508;5.406;2022-10-16T05:53:39;101076.06;;;11.59;100.00
54042;BME280;41156;51.508;5.406;2022-10-16T05:56:39;101086.03;;;11.59;100.00
54042;BME280;41156;51.508;5.406;2022-10-16T05:59:39;101087.72;;;11.60;100.00
54042;BME280;41156;51.508;5.406;2022-10-16T06:02:40;101089.59;;;11.59;100.00
54042;BME280;41156;51.508;5.406;2022-10-16T06:05:40;101095.63;;;11.61;100.00
54042;BME280;41156;51.508;5.406;2022-10-16T06:08:43;101100.59;;;11.64;100.00
54042;BME280;41156;51.508;5.406;2022-10-16T06:11:45;101102.47;;;11.64;100.00
54042;BME280;41156;51.508;5.406;2022-10-16T06:14:46;101109.16;;;11.61;100.00
54042;BME280;41156;51.508;5.406;2022-10-16T06:17:49;101121.88;;;11.61;100.00
54042;BME280;41156;51.508;5.406;2022-10-16T06:20:50;101124.78;;;11.59;100.00
54042;BME280;41156;51.508;5.406;2022-10-16T06:23:50;101140.16;;;11.59;100.00
54042;BME280;41156;51.508;5.406;2022-10-16T06:26:50;101136.63;;;11.58;100.00
54042;BME280;41156;51.508;5.406;2022-10-16T06:29:51;101137.47;;;11.59;100.00
54042;BME280;41156;51.508;5.406;2022-10-16T06:32:51;101143.50;;;11.61;100.00
54042;BME280;41156;51.508;5.406;2022-10-16T06:35:51;101150.56;;;11.62;100.00
54042;BME280;41156;51.508;5.406;2022-10-16T06:38:52;101155.19;;;11.55;100.00
54042;BME280;41156;51.508;5.406;2022-10-16T06:41:52;101152.69;;;11.53;100.00
54042;BME280;41156;51.508;5.406;2022-10-16T06:44:52;101154.75;;;11.58;100.00
54042;BME280;41156;51.508;5.406;2022-10-16T06:47:53;101168.47;;;11.70;100.00
54042;BME280;41156;51.508;5.406;2022-10-16T06:51:01;101175.94;;;11.74;100.00
54042;BME280;41156;51.508;5.406;2022-10-16T06:54:02;101170.06;;;11.77;100.00
54042;BME280;41156;51.508;5.406;2022-10-16T06:57:03;101181.72;;;11.84;100.00
54042;BME280;41156;51.508;5.406;2022-10-16T07:00:06;101189.22;;;11.89;100.00
54042;BME280;41156;51.508;5.406;2022-10-16T07:03:06;101185.88;;;11.94;100.00
54042;BME280;41156;51.508;5.406;2022-10-16T07:06:08;101187.72;;;12.00;100.00
54042;BME280;41156;51.508;5.406;2022-10-16T07:09:12;101194.13;;;12.06;100.00
54042;BME280;41156;51.508;5.406;2022-10-16T07:12:12;101199.78;;;12.11;100.00
54042;BME280;41156;51.508;5.406;2022-10-16T07:15:13;101207.22;;;12.15;100.00
54042;BME280;41156;51.508;5.406;2022-10-16T07:18:13;101209.69;;;12.24;100.00
54042;BME280;41156;51.508;5.406;2022-10-16T07:21:19;101215.91;;;12.31;100.00
54042;BME280;41156;51.508;5.406;2022-10-16T07:24:25;101220.44;;;12.37;100.00
54042;BME280;41156;51.508;5.406;2022-10-16T07:27:25;101226.88;;;12.43;100.00
54042;BME280;41156;51.508;5.406;2022-10-16T07:30:26;101228.50;;;12.50;100.00
54042;BME280;41156;51.508;5.406;2022-10-16T07:33:26;101243.69;;;12.58;100.00
54042;BME280;41156;51.508;5.406;2022-10-16T07:36:27;101257.19;;;12.65;100.00
54042;BME280;41156;51.508;5.406;2022-10-16T07:39:27;101247.97;;;12.72;100.00
54042;BME280;41156;51.508;5.406;2022-10-16T07:42:27;101252.88;;;12.82;100.00
54042;BME280;41156;51.508;5.406;2022-10-16T07:45:28;101258.03;;;12.90;100.00
54042;BME280;41156;51.508;5.406;2022-10-16T07:48:33;101271.97;;;13.01;100.00
54042;BME280;41156;51.508;5.406;2022-10-16T07:51:33;101266.03;;;13.10;100.00
54042;BME280;41156;51.508;5.406;2022-10-16T07:54:34;101284.31;;;13.22;100.00
54042;BME280;41156;51.508;5.406;2022-10-16T07:57:34;101277.56;;;13.31;100.00
54042;BME280;41156;51.508;5.406;2022-10-16T08:00:36;101284.38;;;13.40;100.00
54042;BME280;41156;51.508;5.406;2022-10-16T08:03:37;101283.72;;;13.45;100.00
54042;BME280;41156;51.508;5.406;2022-10-16T08:06:39;101291.47;;;13.41;100.00
54042;BME280;41156;51.508;5.406;2022-10-16T08:09:40;101290.97;;;13.51;100.00
54042;BME280;41156;51.508;5.406;2022-10-16T08:12:40;101301.13;;;13.62;100.00
54042;BME280;41156;51.508;5.406;2022-10-16T08:15:44;101294.09;;;13.73;100.00
54042;BME280;41156;51.508;5.406;2022-10-16T08:18:44;101311.00;;;13.94;100.00
54042;BME280;41156;51.508;5.406;2022-10-16T08:21:48;101316.22;;;14.14;100.00
54042;BME280;41156;51.508;5.406;2022-10-16T08:24:48;101313.50;;;14.32;100.00
54042;BME280;41156;51.508;5.406;2022-10-16T08:27:49;101319.13;;;14.49;100.00
54042;BME280;41156;51.508;5.406;2022-10-16T08:30:50;101322.97;;;14.60;100.00
54042;BME280;41156;51.508;5.406;2022-10-16T08:33:50;101331.94;;;14.79;100.00
54042;BME280;41156;51.508;5.406;2022-10-16T08:36:55;101340.84;;;14.86;100.00
54042;BME280;41156;51.508;5.406;2022-10-16T08:39:55;101350.34;;;14.95;100.00
54042;BME280;41156;51.508;5.406;2022-10-16T08:49:10;101357.75;;;15.30;100.00
54042;BME280;41156;51.508;5.406;2022-10-16T08:52:13;101363.22;;;15.42;100.00
54042;BME280;41156;51.508;5.406;2022-10-16T08:58:30;101352.22;;;15.61;100.00
54042;BME280;41156;51.508;5.406;2022-10-16T09:01:40;101353.28;;;15.71;100.00
54042;BME280;41156;51.508;5.406;2022-10-16T09:05:16;101361.50;;;15.83;99.10
54042;BME280;41156;51.508;5.406;2022-10-16T09:11:47;101371.22;;;16.03;97.02
54042;BME280;41156;51.508;5.406;2022-10-16T09:18:23;101375.41;;;16.46;99.73
54042;BME280;41156;51.508;5.406;2022-10-16T09:21:29;101385.22;;;16.59;100.00
54042;BME280;41156;51.508;5.406;2022-10-16T09:24:30;101383.03;;;16.73;99.31
54042;BME280;41156;51.508;5.406;2022-10-16T09:27:30;101379.44;;;16.84;97.78
54042;BME280;41156;51.508;5.406;2022-10-16T09:30:31;101384.03;;;16.83;99.17
54042;BME280;41156;51.508;5.406;2022-10-16T09:33:39;101397.56;;;16.90;90.86
54042;BME280;41156;51.508;5.406;2022-10-16T09:36:42;101398.50;;;16.96;96.51
54042;BME280;41156;51.508;5.406;2022-10-16T09:39:46;101401.84;;;17.15;96.99
54042;BME280;41156;51.508;5.406;2022-10-16T09:42:47;101400.25;;;17.48;94.88
54042;BME280;41156;51.508;5.406;2022-10-16T09:46:02;101404.81;;;17.59;91.98
54042;BME280;41156;51.508;5.406;2022-10-16T09:49:05;101396.78;;;17.69;92.08
54042;BME280;41156;51.508;5.406;2022-10-16T09:52:18;101398.94;;;17.84;91.63
54042;BME280;41156;51.508;5.406;2022-10-16T09:55:19;101406.88;;;17.69;92.01
54042;BME280;41156;51.508;5.406;2022-10-16T09:58:23;101410.94;;;17.66;90.28
54042;BME280;41156;51.508;5.406;2022-10-16T10:01:30;101410.03;;;17.78;85.95
54042;BME280;41156;51.508;5.406;2022-10-16T10:05:00;101413.91;;;17.82;82.05
54042;BME280;41156;51.508;5.406;2022-10-16T10:08:02;101410.84;;;17.78;84.68
54042;BME280;41156;51.508;5.406;2022-10-16T10:11:06;101416.41;;;17.66;89.75
54042;BME280;41156;51.508;5.406;2022-10-16T10:14:15;101408.88;;;17.56;80.82
54042;BME280;41156;51.508;5.406;2022-10-16T10:17:24;101419.28;;;17.76;83.87
54042;BME280;41156;51.508;5.406;2022-10-16T10:20:30;101420.16;;;17.77;83.35
54042;BME280;41156;51.508;5.406;2022-10-16T10:23:32;101428.38;;;17.94;87.36
54042;BME280;41156;51.508;5.406;2022-10-16T10:26:33;101436.25;;;17.90;86.46
54042;BME280;41156;51.508;5.406;2022-10-16T10:33:09;101434.41;;;17.96;82.42
54042;BME280;41156;51.508;5.406;2022-10-16T10:36:20;101437.69;;;18.15;84.98
54042;BME280;41156;51.508;5.406;2022-10-16T10:39:28;101441.34;;;18.21;82.44
54042;BME280;41156;51.508;5.406;2022-10-16T10:42:41;101439.88;;;17.96;81.09
54042;BME280;41156;51.508;5.406;2022-10-16T10:45:48;101445.97;;;17.69;82.24
54042;BME280;41156;51.508;5.406;2022-10-16T10:58:43;101454.06;;;17.30;80.57
54042;BME280;41156;51.508;5.406;2022-10-16T11:01:55;101450.09;;;17.55;78.86
54042;BME280;41156;51.508;5.406;2022-10-16T11:08:22;101454.03;;;17.93;75.47
54042;BME280;41156;51.508;5.406;2022-10-16T11:11:26;101452.19;;;17.82;81.75
54042;BME280;41156;51.508;5.406;2022-10-16T11:14:44;101453.50;;;17.62;78.02
54042;BME280;41156;51.508;5.406;2022-10-16T11:17:58;101454.34;;;17.80;77.30
54042;BME280;41156;51.508;5.406;2022-10-16T11:21:05;101452.19;;;17.82;78.36
54042;BME280;41156;51.508;5.406;2022-10-16T11:24:19;101457.06;;;17.80;77.82
54042;BME280;41156;51.508;5.406;2022-10-16T11:27:45;101455.69;;;17.77;76.27
54042;BME280;41156;51.508;5.406;2022-10-16T11:30:51;101455.28;;;18.02;76.86
54042;BME280;41156;51.508;5.406;2022-10-16T11:34:31;101457.47;;;18.39;73.40
54042;BME280;41156;51.508;5.406;2022-10-16T11:37:37;101444.25;;;18.75;75.79
54042;BME280;41156;51.508;5.406;2022-10-16T11:40:42;101451.41;;;18.81;76.99
54042;BME280;41156;51.508;5.406;2022-10-16T11:43:56;101464.81;;;19.00;72.91
54042;BME280;41156;51.508;5.406;2022-10-16T11:47:09;101456.88;;;19.26;71.87
54042;BME280;41156;51.508;5.406;2022-10-16T11:50:31;101455.75;;;19.49;65.65
54042;BME280;41156;51.508;5.406;2022-10-16T11:54:32;101463.94;;;19.44;66.65
54042;BME280;41156;51.508;5.406;2022-10-16T11:57:19;101468.34;;;19.22;69.84
54042;BME280;41156;51.508;5.406;2022-10-16T12:00:24;101464.31;;;19.03;71.67
54042;BME280;41156;51.508;5.406;2022-10-16T12:03:34;101466.91;;;18.71;71.47
54042;BME280;41156;51.508;5.406;2022-10-16T12:06:55;101464.41;;;18.47;71.31
54042;BME280;41156;51.508;5.406;2022-10-16T12:09:57;101463.28;;;18.26;76.65
54042;BME280;41156;51.508;5.406;2022-10-16T12:13:00;101462.84;;;18.34;77.70
54042;BME280;41156;51.508;5.406;2022-10-16T12:16:21;101471.34;;;18.55;73.84
54042;BME280;41156;51.508;5.406;2022-10-16T12:19:23;101469.34;;;18.89;75.83
54042;BME280;41156;51.508;5.406;2022-10-16T12:22:23;101475.91;;;19.10;75.02
54042;BME280;41156;51.508;5.406;2022-10-16T12:25:34;101465.06;;;19.20;67.60
54042;BME280;41156;51.508;5.406;2022-10-16T12:28:35;101470.56;;;19.53;73.48
54042;BME280;41156;51.508;5.406;2022-10-16T12:31:44;101466.25;;;19.89;69.57
54042;BME280;41156;51.508;5.406;2022-10-16T12:34:47;101464.47;;;20.05;70.70
54042;BME280;41156;51.508;5.406;2022-10-16T12:37:48;101467.09;;;19.95;71.76
54042;BME280;41156;51.508;5.406;2022-10-16T12:41:04;101474.00;;;19.98;66.87
54042;BME280;41156;51.508;5.406;2022-10-16T12:44:20;101471.28;;;20.03;70.82
54042;BME280;41156;51.508;5.406;2022-10-16T12:50:35;101465.63;;;19.77;71.65
54042;BME280;41156;51.508;5.406;2022-10-16T12:53:36;101470.50;;;19.75;71.15
54042;BME280;41156;51.508;5.406;2022-10-16T13:00:28;101469.91;;;19.40;68.60
54042;BME280;41156;51.508;5.406;2022-10-16T13:11:05;101448.25;;;19.39;65.75
54042;BME280;41156;51.508;5.406;2022-10-16T13:17:54;101463.28;;;19.36;64.33
54042;BME280;41156;51.508;5.406;2022-10-16T13:21:25;101462.13;;;19.27;62.52
54042;BME280;41156;51.508;5.406;2022-10-16T13:30:55;101472.69;;;19.18;68.82
54042;BME280;41156;51.508;5.406;2022-10-16T13:33:58;101478.16;;;19.18;68.23
54042;BME280;41156;51.508;5.406;2022-10-16T13:36:59;101485.00;;;19.16;70.29
54042;BME280;41156;51.508;5.406;2022-10-16T13:40:18;101488.19;;;19.08;68.83
54042;BME280;41156;51.508;5.406;2022-10-16T13:46:39;101501.06;;;19.07;70.78
54042;BME280;41156;51.508;5.406;2022-10-16T13:49:40;101488.63;;;18.99;70.91
54042;BME280;41156;51.508;5.406;2022-10-16T13:52:40;101497.81;;;18.88;70.49
54042;BME280;41156;51.508;5.406;2022-10-16T13:55:41;101503.44;;;18.81;70.77
54042;BME280;41156;51.508;5.406;2022-10-16T13:58:42;101490.25;;;18.78;71.11
54042;BME280;41156;51.508;5.406;2022-10-16T14:01:44;101495.72;;;18.78;70.59
54042;BME280;41156;51.508;5.406;2022-10-16T14:04:44;101500.56;;;18.71;71.07
54042;BME280;41156;51.508;5.406;2022-10-16T14:07:49;101499.69;;;18.65;68.02
54042;BME280;41156;51.508;5.406;2022-10-16T14:10:54;101493.91;;;18.62;70.81
54042;BME280;41156;51.508;5.406;2022-10-16T14:13:55;101499.94;;;18.64;71.48
54042;BME280;41156;51.508;5.406;2022-10-16T14:16:55;101498.78;;;18.60;71.96
54042;BME280;41156;51.508;5.406;2022-10-16T14:19:59;101501.38;;;18.49;71.29
54042;BME280;41156;51.508;5.406;2022-10-16T14:23:21;101488.88;;;18.37;70.92
54042;BME280;41156;51.508;5.406;2022-10-16T14:26:24;101485.25;;;18.31;72.35
54042;BME280;41156;51.508;5.406;2022-10-16T14:29:26;101488.22;;;18.29;72.76
54042;BME280;41156;51.508;5.406;2022-10-16T14:32:28;101494.19;;;18.26;72.99
54042;BME280;41156;51.508;5.406;2022-10-16T14:35:37;101493.63;;;18.24;71.83
54042;BME280;41156;51.508;5.406;2022-10-16T14:38:39;101468.09;;;18.36;72.10
54042;BME280;41156;51.508;5.406;2022-10-16T14:41:46;101467.22;;;18.52;71.19
54042;BME280;41156;51.508;5.406;2022-10-16T14:44:47;101475.13;;;18.48;72.42
54042;BME280;41156;51.508;5.406;2022-10-16T14:47:51;101482.59;;;18.36;72.97
54042;BME280;41156;51.508;5.406;2022-10-16T14:50:52;101482.16;;;18.44;73.59
54042;BME280;41156;51.508;5.406;2022-10-16T14:53:53;101482.59;;;18.58;73.13
54042;BME280;41156;51.508;5.406;2022-10-16T14:56:56;101492.81;;;18.63;72.41
54042;BME280;41156;51.508;5.406;2022-10-16T14:59:57;101473.13;;;18.66;72.87
54042;BME280;41156;51.508;5.406;2022-10-16T15:02:57;101457.28;;;18.68;72.48
54042;BME280;41156;51.508;5.406;2022-10-16T15:05:57;101464.16;;;18.48;73.47
54042;BME280;41156;51.508;5.406;2022-10-16T15:08:57;101474.88;;;18.33;73.97
54042;BME280;41156;51.508;5.406;2022-10-16T15:11:58;101471.16;;;18.22;74.27
54042;BME280;41156;51.508;5.406;2022-10-16T15:14:58;101468.63;;;18.16;74.60
54042;BME280;41156;51.508;5.406;2022-10-16T15:17:58;101464.13;;;18.09;74.93
54042;BME280;41156;51.508;5.406;2022-10-16T15:21:00;101477.97;;;18.03;75.63
54042;BME280;41156;51.508;5.406;2022-10-16T15:24:01;101478.22;;;18.01;75.84
54042;BME280;41156;51.508;5.406;2022-10-16T15:27:01;101472.94;;;17.94;75.94
54042;BME280;41156;51.508;5.406;2022-10-16T15:30:02;101482.13;;;17.88;76.34
54042;BME280;41156;51.508;5.406;2022-10-16T15:33:02;101476.78;;;17.82;76.30
54042;BME280;41156;51.508;5.406;2022-10-16T15:36:04;101469.84;;;17.74;76.66
54042;BME280;41156;51.508;5.406;2022-10-16T15:39:08;101470.81;;;17.68;77.71
54042;BME280;41156;51.508;5.406;2022-10-16T15:42:11;101471.78;;;17.62;77.39
54042;BME280;41156;51.508;5.406;2022-10-16T15:45:12;101472.81;;;17.55;77.78
54042;BME280;41156;51.508;5.406;2022-10-16T15:48:13;101477.31;;;17.50;78.40
54042;BME280;41156;51.508;5.406;2022-10-16T15:51:13;101479.41;;;17.43;79.10
54042;BME280;41156;51.508;5.406;2022-10-16T15:54:14;101477.63;;;17.36;79.25
54042;BME280;41156;51.508;5.406;2022-10-16T15:57:15;101471.59;;;17.34;79.49
54042;BME280;41156;51.508;5.406;2022-10-16T16:00:18;101461.41;;;17.30;80.33
54042;BME280;41156;51.508;5.406;2022-10-16T16:03:21;101474.13;;;17.24;80.49
54042;BME280;41156;51.508;5.406;2022-10-16T16:06:22;101475.47;;;17.38;79.81
54042;BME280;41156;51.508;5.406;2022-10-16T16:09:25;101460.97;;;17.21;80.50
54042;BME280;41156;51.508;5.406;2022-10-16T16:12:25;101460.69;;;17.06;81.89
54042;BME280;41156;51.508;5.406;2022-10-16T16:15:26;101458.09;;;16.99;82.45
54042;BME280;41156;51.508;5.406;2022-10-16T16:18:26;101455.28;;;16.94;82.97
54042;BME280;41156;51.508;5.406;2022-10-16T16:21:26;101451.41;;;17.07;81.94
54042;BME280;41156;51.508;5.406;2022-10-16T16:24:27;101462.84;;;16.92;82.73
54042;BME280;41156;51.508;5.406;2022-10-16T16:27:27;101450.63;;;16.82;83.50
54042;BME280;41156;51.508;5.406;2022-10-16T16:30:29;101459.78;;;16.76;84.07
54042;BME280;41156;51.508;5.406;2022-10-16T16:33:30;101448.53;;;16.73;84.55
54042;BME280;41156;51.508;5.406;2022-10-16T16:36:32;101455.41;;;16.87;83.81
54042;BME280;41156;51.508;5.406;2022-10-16T16:39:32;101444.94;;;16.84;84.64
54042;BME280;41156;51.508;5.406;2022-10-16T16:42:33;101455.53;;;16.57;85.77
54042;BME280;41156;51.508;5.406;2022-10-16T16:45:36;101462.44;;;16.48;87.09
54042;BME280;41156;51.508;5.406;2022-10-16T16:48:37;101473.84;;;16.44;86.77
54042;BME280;41156;51.508;5.406;2022-10-16T16:51:38;101479.19;;;16.39;87.44
54042;BME280;41156;51.508;5.406;2022-10-16T16:54:38;101484.06;;;16.37;87.75
54042;BME280;41156;51.508;5.406;2022-10-16T16:57:39;101477.41;;;16.33;88.00
54042;BME280;41156;51.508;5.406;2022-10-16T17:00:46;101476.69;;;16.26;89.19
54042;BME280;41156;51.508;5.406;2022-10-16T17:03:48;101487.50;;;16.21;88.52
54042;BME280;41156;51.508;5.406;2022-10-16T17:06:49;101495.09;;;16.19;89.55